sensor_id;sensor_type;location;lat;lon;timestamp;P1;durP1;ratioP1;P2;durP2;ratioP2
76852;SDS011;65825;52.232;10.566;2023-06-04T00:02:05;7.27;;;2.53;;
76852;SDS011;65825;52.232;10.566;2023-06-04T00:04:30;8.75;;;2.70;;
76852;SDS011;65825;52.232;10.566;2023-06-04T00:06:58;7.22;;;2.50;;
76852;SDS011;65825;52.232;10.566;2023-06-04T00:09:23;6.23;;;2.70;;
76852;SDS011;65825;52.232;10.566;2023-06-04T00:11:48;5.40;;;2.50;;
76852;SDS011;65825;52.232;10.566;2023-06-04T00:14:14;5.45;;;2.60;;
76852;SDS011;65825;52.232;10.566;2023-06-04T00:16:40;8.98;;;2.88;;
76852;SDS011;65825;52.232;10.566;2023-06-04T00:19:05;4.78;;;2.42;;
76852;SDS011;65825;52.232;10.566;2023-06-04T00:21:31;6.18;;;2.33;;
76852;SDS011;65825;52.232;10.566;2023-06-04T00:23:56;4.50;;;2.60;;
76852;SDS011;65825;52.232;10.566;2023-06-04T00:26:21;5.30;;;2.30;;
76852;SDS011;65825;52.232;10.566;2023-06-04T00:28:47;5.83;;;2.50;;
76852;SDS011;65825;52.232;10.566;2023-06-04T00:31:12;5.00;;;2.30;;
76852;SDS011;65825;52.232;10.566;2023-06-04T00:33:41;5.70;;;2.75;;
76852;SDS011;65825;52.232;10.566;2023-06-04T00:36:06;5.88;;;2.47;;
76852;SDS011;65825;52.232;10.566;2023-06-04T00:38:32;5.20;;;2.42;;
76852;SDS011;65825;52.232;10.566;2023-06-04T00:40:58;5.30;;;2.10;;
76852;SDS011;65825;52.232;10.566;2023-06-04T00:43:23;4.20;;;2.22;;
76852;SDS011;65825;52.232;10.566;2023-06-04T00:45:52;5.57;;;2.20;;
76852;SDS011;65825;52.232;10.566;2023-06-04T00:48:18;6.53;;;2.28;;
76852;SDS011;65825;52.232;10.566;2023-06-04T00:50:44;4.32;;;2.85;;
76852;SDS011;65825;52.232;10.566;2023-06-04T00:53:09;4.20;;;2.35;;
76852;SDS011;65825;52.232;10.566;2023-06-04T00:55:35;4.03;;;2.28;;
76852;SDS011;65825;52.232;10.566;2023-06-04T00:58:01;3.70;;;2.17;;
76852;SDS011;65825;52.232;10.566;2023-06-04T01:00:26;5.80;;;2.40;;
76852;SDS011;65825;52.232;10.566;2023-06-04T01:02:52;4.18;;;2.00;;
76852;SDS011;65825;52.232;10.566;2023-06-04T01:08:05;5.43;;;2.25;;
76852;SDS011;65825;52.232;10.566;2023-06-04T01:10:33;4.38;;;2.50;;
76852;SDS011;65825;52.232;10.566;2023-06-04T01:12:59;6.07;;;2.40;;
76852;SDS011;65825;52.232;10.566;2023-06-04T01:15:25;4.90;;;2.28;;
76852;SDS011;65825;52.232;10.566;2023-06-04T01:17:51;5.13;;;2.27;;
76852;SDS011;65825;52.232;10.566;2023-06-04T01:23:14;7.55;;;2.45;;
76852;SDS011;65825;52.232;10.566;2023-06-04T01:25:40;5.40;;;2.50;;
76852;SDS011;65825;52.232;10.566;2023-06-04T01:28:09;4.85;;;2.35;;
76852;SDS011;65825;52.232;10.566;2023-06-04T01:30:37;4.80;;;2.30;;
76852;SDS011;65825;52.232;10.566;2023-06-04T01:33:14;4.53;;;2.20;;
76852;SDS011;65825;52.232;10.566;2023-06-04T01:35:41;4.25;;;2.05;;
76852;SDS011;65825;52.232;10.566;2023-06-04T01:38:06;4.90;;;2.30;;
76852;SDS011;65825;52.232;10.566;2023-06-04T01:40:32;5.28;;;2.45;;
76852;SDS011;65825;52.232;10.566;2023-06-04T01:42:58;4.43;;;2.53;;
76852;SDS011;65825;52.232;10.566;2023-06-04T01:45:25;4.50;;;2.00;;
76852;SDS011;65825;52.232;10.566;2023-06-04T01:47:51;6.15;;;2.10;;
76852;SDS011;65825;52.232;10.566;2023-06-04T01:50:17;6.05;;;2.25;;
76852;SDS011;65825;52.232;10.566;2023-06-04T01:52:42;4.00;;;2.40;;
76852;SDS011;65825;52.232;10.566;2023-06-04T01:55:09;4.25;;;2.42;;
76852;SDS011;65825;52.232;10.566;2023-06-04T01:57:37;4.43;;;2.22;;
76852;SDS011;65825;52.232;10.566;2023-06-04T02:00:03;6.93;;;2.30;;
76852;SDS011;65825;52.232;10.566;2023-06-04T02:02:32;4.75;;;2.15;;
76852;SDS011;65825;52.232;10.566;2023-06-04T02:04:57;4.35;;;2.22;;
76852;SDS011;65825;52.232;10.566;2023-06-04T02:07:23;4.57;;;2.10;;
76852;SDS011;65825;52.232;10.566;2023-06-04T02:09:48;4.97;;;2.37;;
76852;SDS011;65825;52.232;10.566;2023-06-04T02:12:14;4.63;;;2.17;;
76852;SDS011;65825;52.232;10.566;2023-06-04T02:14:40;6.40;;;2.42;;
76852;SDS011;65825;52.232;10.566;2023-06-04T02:17:07;6.88;;;2.28;;
76852;SDS011;65825;52.232;10.566;2023-06-04T02:19:37;5.25;;;2.40;;
76852;SDS011;65825;52.232;10.566;2023-06-04T02:22:04;5.20;;;2.20;;
76852;SDS011;65825;52.232;10.566;2023-06-04T02:24:30;4.78;;;2.08;;
76852;SDS011;65825;52.232;10.566;2023-06-04T02:26:56;4.88;;;2.30;;
76852;SDS011;65825;52.232;10.566;2023-06-04T02:29:21;4.97;;;2.30;;
76852;SDS011;65825;52.232;10.566;2023-06-04T02:31:46;5.37;;;2.57;;
76852;SDS011;65825;52.232;10.566;2023-06-04T02:34:11;5.60;;;2.60;;
76852;SDS011;65825;52.232;10.566;2023-06-04T02:36:37;12.20;;;3.17;;
76852;SDS011;65825;52.232;10.566;2023-06-04T02:39:02;5.53;;;2.53;;
76852;SDS011;65825;52.232;10.566;2023-06-04T02:41:27;5.38;;;2.67;;
76852;SDS011;65825;52.232;10.566;2023-06-04T02:43:53;6.10;;;2.67;;
76852;SDS011;65825;52.232;10.566;2023-06-04T02:46:18;6.70;;;2.90;;
76852;SDS011;65825;52.232;10.566;2023-06-04T02:48:43;6.47;;;2.80;;
76852;SDS011;65825;52.232;10.566;2023-06-04T02:51:08;5.15;;;2.63;;
76852;SDS011;65825;52.232;10.566;2023-06-04T02:53:35;4.53;;;2.40;;
76852;SDS011;65825;52.232;10.566;2023-06-04T02:56:01;5.53;;;2.50;;
76852;SDS011;65825;52.232;10.566;2023-06-04T02:58:26;6.68;;;2.60;;
76852;SDS011;65825;52.232;10.566;2023-06-04T03:00:53;4.93;;;2.30;;
76852;SDS011;65825;52.232;10.566;2023-06-04T03:03:20;5.75;;;2.47;;
76852;SDS011;65825;52.232;10.566;2023-06-04T03:05:45;5.82;;;2.20;;
76852;SDS011;65825;52.232;10.566;2023-06-04T03:08:11;4.22;;;2.28;;
76852;SDS011;65825;52.232;10.566;2023-06-04T03:10:36;4.70;;;2.35;;
76852;SDS011;65825;52.232;10.566;2023-06-04T03:13:02;6.28;;;2.58;;
76852;SDS011;65825;52.232;10.566;2023-06-04T03:15:28;5.82;;;2.50;;
76852;SDS011;65825;52.232;10.566;2023-06-04T03:17:53;5.30;;;2.80;;
76852;SDS011;65825;52.232;10.566;2023-06-04T03:20:18;7.38;;;2.80;;
76852;SDS011;65825;52.232;10.566;2023-06-04T03:22:44;4.25;;;2.28;;
76852;SDS011;65825;52.232;10.566;2023-06-04T03:25:09;5.30;;;2.27;;
76852;SDS011;65825;52.232;10.566;2023-06-04T03:27:34;6.50;;;2.47;;
76852;SDS011;65825;52.232;10.566;2023-06-04T03:30:00;4.68;;;2.58;;
76852;SDS011;65825;52.232;10.566;2023-06-04T03:32:25;5.32;;;2.72;;
76852;SDS011;65825;52.232;10.566;2023-06-04T03:34:51;4.97;;;2.80;;
76852;SDS011;65825;52.232;10.566;2023-06-04T03:37:16;8.05;;;2.97;;
76852;SDS011;65825;52.232;10.566;2023-06-04T03:39:44;6.63;;;2.55;;
76852;SDS011;65825;52.232;10.566;2023-06-04T03:42:09;5.57;;;2.70;;
76852;SDS011;65825;52.232;10.566;2023-06-04T03:44:35;4.60;;;2.57;;
76852;SDS011;65825;52.232;10.566;2023-06-04T03:47:00;4.88;;;2.42;;
76852;SDS011;65825;52.232;10.566;2023-06-04T03:49:25;17.40;;;2.80;;
76852;SDS011;65825;52.232;10.566;2023-06-04T03:51:50;10.18;;;2.72;;
76852;SDS011;65825;52.232;10.566;2023-06-04T03:54:16;5.93;;;2.33;;
76852;SDS011;65825;52.232;10.566;2023-06-04T03:56:45;8.68;;;2.38;;
76852;SDS011;65825;52.232;10.566;2023-06-04T03:59:10;7.43;;;2.50;;
76852;SDS011;65825;52.232;10.566;2023-06-04T04:01:36;5.85;;;2.33;;
76852;SDS011;65825;52.232;10.566;2023-06-04T04:04:01;6.00;;;2.40;;
76852;SDS011;65825;52.232;10.566;2023-06-04T04:06:26;5.13;;;2.43;;
76852;SDS011;65825;52.232;10.566;2023-06-04T04:08:51;6.47;;;2.58;;
76852;SDS011;65825;52.232;10.566;2023-06-04T04:11:18;6.97;;;2.55;;
76852;SDS011;65825;52.232;10.566;2023-06-04T04:13:46;7.70;;;2.88;;
76852;SDS011;65825;52.232;10.566;2023-06-04T04:16:11;5.28;;;2.75;;
76852;SDS011;65825;52.232;10.566;2023-06-04T04:18:37;4.53;;;2.22;;
76852;SDS011;65825;52.232;10.566;2023-06-04T04:21:02;4.90;;;2.50;;
76852;SDS011;65825;52.232;10.566;2023-06-04T04:23:29;5.60;;;2.83;;
76852;SDS011;65825;52.232;10.566;2023-06-04T04:25:55;10.73;;;2.80;;
76852;SDS011;65825;52.232;10.566;2023-06-04T04:28:24;6.00;;;3.00;;
76852;SDS011;65825;52.232;10.566;2023-06-04T04:30:53;5.00;;;2.80;;
76852;SDS011;65825;52.232;10.566;2023-06-04T04:33:19;4.57;;;2.83;;
76852;SDS011;65825;52.232;10.566;2023-06-04T04:35:44;6.25;;;2.92;;
76852;SDS011;65825;52.232;10.566;2023-06-04T04:38:10;5.82;;;2.70;;
76852;SDS011;65825;52.232;10.566;2023-06-04T04:40:35;5.82;;;2.60;;
76852;SDS011;65825;52.232;10.566;2023-06-04T04:43:01;4.32;;;2.60;;
76852;SDS011;65825;52.232;10.566;2023-06-04T04:45:26;5.70;;;2.50;;
76852;SDS011;65825;52.232;10.566;2023-06-04T04:47:51;14.90;;;3.00;;
76852;SDS011;65825;52.232;10.566;2023-06-04T04:50:19;4.95;;;2.42;;
76852;SDS011;65825;52.232;10.566;2023-06-04T04:52:44;6.43;;;2.77;;
76852;SDS011;65825;52.232;10.566;2023-06-04T04:55:10;4.47;;;2.80;;
76852;SDS011;65825;52.232;10.566;2023-06-04T04:57:37;3.83;;;2.35;;
76852;SDS011;65825;52.232;10.566;2023-06-04T05:00:03;4.55;;;2.50;;
76852;SDS011;65825;52.232;10.566;2023-06-04T05:02:34;4.68;;;2.40;;
76852;SDS011;65825;52.232;10.566;2023-06-04T05:04:59;5.35;;;2.53;;
76852;SDS011;65825;52.232;10.566;2023-06-04T05:07:25;6.57;;;2.45;;
76852;SDS011;65825;52.232;10.566;2023-06-04T05:09:51;5.10;;;2.55;;
76852;SDS011;65825;52.232;10.566;2023-06-04T05:12:16;4.32;;;2.10;;
76852;SDS011;65825;52.232;10.566;2023-06-04T05:14:41;6.53;;;2.47;;
76852;SDS011;65825;52.232;10.566;2023-06-04T05:17:07;8.18;;;2.50;;
76852;SDS011;65825;52.232;10.566;2023-06-04T05:19:35;5.88;;;2.35;;
76852;SDS011;65825;52.232;10.566;2023-06-04T05:24:27;4.93;;;2.20;;
76852;SDS011;65825;52.232;10.566;2023-06-04T05:26:53;3.35;;;2.05;;
76852;SDS011;65825;52.232;10.566;2023-06-04T05:29:19;6.00;;;2.70;;
76852;SDS011;65825;52.232;10.566;2023-06-04T05:31:45;5.65;;;2.40;;
76852;SDS011;65825;52.232;10.566;2023-06-04T05:34:10;4.63;;;2.20;;
76852;SDS011;65825;52.232;10.566;2023-06-04T05:36:41;5.32;;;2.25;;
76852;SDS011;65825;52.232;10.566;2023-06-04T05:39:07;5.82;;;2.08;;
76852;SDS011;65825;52.232;10.566;2023-06-04T05:41:34;4.38;;;2.40;;
76852;SDS011;65825;52.232;10.566;2023-06-04T05:43:59;4.72;;;2.00;;
76852;SDS011;65825;52.232;10.566;2023-06-04T05:46:25;7.65;;;2.10;;
76852;SDS011;65825;52.232;10.566;2023-06-04T05:48:50;6.57;;;2.50;;
76852;SDS011;65825;52.232;10.566;2023-06-04T05:51:16;3.45;;;1.73;;
76852;SDS011;65825;52.232;10.566;2023-06-04T05:53:41;11.43;;;2.37;;
76852;SDS011;65825;52.232;10.566;2023-06-04T05:56:07;4.80;;;2.35;;
76852;SDS011;65825;52.232;10.566;2023-06-04T05:58:32;3.95;;;2.00;;
76852;SDS011;65825;52.232;10.566;2023-06-04T06:00:59;3.72;;;1.90;;
76852;SDS011;65825;52.232;10.566;2023-06-04T06:03:25;3.70;;;2.00;;
76852;SDS011;65825;52.232;10.566;2023-06-04T06:05:52;4.38;;;2.20;;
76852;SDS011;65825;52.232;10.566;2023-06-04T06:08:17;4.78;;;2.08;;
76852;SDS011;65825;52.232;10.566;2023-06-04T06:10:43;5.57;;;2.40;;
76852;SDS011;65825;52.232;10.566;2023-06-04T06:13:08;4.60;;;2.30;;
76852;SDS011;65825;52.232;10.566;2023-06-04T06:15:33;3.87;;;2.10;;
76852;SDS011;65825;52.232;10.566;2023-06-04T06:17:59;7.80;;;3.15;;
76852;SDS011;65825;52.232;10.566;2023-06-04T06:20:24;5.23;;;2.40;;
76852;SDS011;65825;52.232;10.566;2023-06-04T06:22:50;5.45;;;2.20;;
76852;SDS011;65825;52.232;10.566;2023-06-04T06:25:16;4.35;;;2.65;;
76852;SDS011;65825;52.232;10.566;2023-06-04T06:27:41;4.97;;;2.37;;
76852;SDS011;65825;52.232;10.566;2023-06-04T06:30:07;4.70;;;2.00;;
76852;SDS011;65825;52.232;10.566;2023-06-04T06:32:33;4.65;;;2.75;;
76852;SDS011;65825;52.232;10.566;2023-06-04T06:34:59;3.20;;;2.10;;
76852;SDS011;65825;52.232;10.566;2023-06-04T06:37:25;5.65;;;2.20;;
76852;SDS011;65825;52.232;10.566;2023-06-04T06:39:51;5.18;;;2.10;;
76852;SDS011;65825;52.232;10.566;2023-06-04T06:42:16;4.90;;;2.50;;
76852;SDS011;65825;52.232;10.566;2023-06-04T06:44:44;3.70;;;2.30;;
76852;SDS011;65825;52.232;10.566;2023-06-04T06:47:10;6.55;;;2.63;;
76852;SDS011;65825;52.232;10.566;2023-06-04T06:49:38;5.63;;;2.47;;
76852;SDS011;65825;52.232;10.566;2023-06-04T06:52:04;3.90;;;2.40;;
76852;SDS011;65825;52.232;10.566;2023-06-04T06:54:29;4.68;;;2.25;;
76852;SDS011;65825;52.232;10.566;2023-06-04T06:56:55;7.80;;;2.60;;
76852;SDS011;65825;52.232;10.566;2023-06-04T06:59:20;5.00;;;2.65;;
76852;SDS011;65825;52.232;10.566;2023-06-04T07:01:45;5.73;;;2.53;;
76852;SDS011;65825;52.232;10.566;2023-06-04T07:04:12;6.40;;;2.50;;
76852;SDS011;65825;52.232;10.566;2023-06-04T07:06:37;4.50;;;2.42;;
76852;SDS011;65825;52.232;10.566;2023-06-04T07:09:03;4.78;;;2.35;;
76852;SDS011;65825;52.232;10.566;2023-06-04T07:11:30;4.32;;;2.47;;
76852;SDS011;65825;52.232;10.566;2023-06-04T07:13:55;6.25;;;2.75;;
76852;SDS011;65825;52.232;10.566;2023-06-04T07:16:21;8.53;;;2.70;;
76852;SDS011;65825;52.232;10.566;2023-06-04T07:18:47;7.45;;;2.80;;
76852;SDS011;65825;52.232;10.566;2023-06-04T07:21:14;6.85;;;2.58;;
76852;SDS011;65825;52.232;10.566;2023-06-04T07:23:39;3.60;;;2.47;;
76852;SDS011;65825;52.232;10.566;2023-06-04T07:26:07;7.78;;;2.40;;
76852;SDS011;65825;52.232;10.566;2023-06-04T07:28:32;6.78;;;2.55;;
76852;SDS011;65825;52.232;10.566;2023-06-04T07:30:58;4.80;;;2.47;;
76852;SDS011;65825;52.232;10.566;2023-06-04T07:33:23;3.88;;;2.42;;
76852;SDS011;65825;52.232;10.566;2023-06-04T07:35:49;7.20;;;2.60;;
76852;SDS011;65825;52.232;10.566;2023-06-04T07:38:14;4.70;;;2.63;;
76852;SDS011;65825;52.232;10.566;2023-06-04T07:40:39;4.45;;;2.80;;
76852;SDS011;65825;52.232;10.566;2023-06-04T07:43:04;5.40;;;2.57;;
76852;SDS011;65825;52.232;10.566;2023-06-04T07:45:30;4.43;;;2.17;;
76852;SDS011;65825;52.232;10.566;2023-06-04T07:47:55;4.47;;;2.38;;
76852;SDS011;65825;52.232;10.566;2023-06-04T07:50:21;8.27;;;3.03;;
76852;SDS011;65825;52.232;10.566;2023-06-04T07:52:46;5.00;;;2.30;;
76852;SDS011;65825;52.232;10.566;2023-06-04T07:55:11;4.47;;;2.10;;
76852;SDS011;65825;52.232;10.566;2023-06-04T07:57:36;4.70;;;2.00;;
76852;SDS011;65825;52.232;10.566;2023-06-04T08:00:02;5.10;;;2.40;;
76852;SDS011;65825;52.232;10.566;2023-06-04T08:02:29;5.00;;;2.55;;
76852;SDS011;65825;52.232;10.566;2023-06-04T08:04:54;3.93;;;2.00;;
76852;SDS011;65825;52.232;10.566;2023-06-04T08:07:20;4.80;;;2.20;;
76852;SDS011;65825;52.232;10.566;2023-06-04T08:09:45;5.83;;;2.00;;
76852;SDS011;65825;52.232;10.566;2023-06-04T08:12:10;6.28;;;1.83;;
76852;SDS011;65825;52.232;10.566;2023-06-04T08:14:35;4.17;;;1.80;;
76852;SDS011;65825;52.232;10.566;2023-06-04T08:17:01;5.33;;;2.00;;
76852;SDS011;65825;52.232;10.566;2023-06-04T08:19:26;6.53;;;2.38;;
76852;SDS011;65825;52.232;10.566;2023-06-04T08:21:51;4.77;;;2.07;;
76852;SDS011;65825;52.232;10.566;2023-06-04T08:24:16;7.30;;;2.00;;
76852;SDS011;65825;52.232;10.566;2023-06-04T08:26:42;6.60;;;2.10;;
76852;SDS011;65825;52.232;10.566;2023-06-04T08:29:07;5.10;;;2.00;;
76852;SDS011;65825;52.232;10.566;2023-06-04T08:31:32;3.53;;;1.60;;
76852;SDS011;65825;52.232;10.566;2023-06-04T08:33:58;3.65;;;1.70;;
76852;SDS011;65825;52.232;10.566;2023-06-04T08:36:23;4.53;;;1.90;;
76852;SDS011;65825;52.232;10.566;2023-06-04T08:41:18;6.47;;;2.10;;
76852;SDS011;65825;52.232;10.566;2023-06-04T08:43:51;4.95;;;1.70;;
76852;SDS011;65825;52.232;10.566;2023-06-04T08:46:17;3.75;;;1.95;;
76852;SDS011;65825;52.232;10.566;2023-06-04T08:48:45;7.13;;;2.10;;
76852;SDS011;65825;52.232;10.566;2023-06-04T08:51:10;4.38;;;2.00;;
76852;SDS011;65825;52.232;10.566;2023-06-04T08:53:37;6.28;;;2.20;;
76852;SDS011;65825;52.232;10.566;2023-06-04T08:56:02;5.63;;;2.10;;
76852;SDS011;65825;52.232;10.566;2023-06-04T09:00:58;7.25;;;2.17;;
76852;SDS011;65825;52.232;10.566;2023-06-04T09:03:26;4.65;;;1.77;;
76852;SDS011;65825;52.232;10.566;2023-06-04T09:05:52;3.58;;;1.80;;
76852;SDS011;65825;52.232;10.566;2023-06-04T09:08:19;3.75;;;1.98;;
76852;SDS011;65825;52.232;10.566;2023-06-04T09:10:46;3.47;;;2.00;;
76852;SDS011;65825;52.232;10.566;2023-06-04T09:13:16;3.80;;;2.03;;
76852;SDS011;65825;52.232;10.566;2023-06-04T09:15:43;4.03;;;2.00;;
76852;SDS011;65825;52.232;10.566;2023-06-04T09:18:09;5.30;;;2.00;;
76852;SDS011;65825;52.232;10.566;2023-06-04T09:20:34;2.93;;;1.63;;
76852;SDS011;65825;52.232;10.566;2023-06-04T09:22:59;3.43;;;2.10;;
76852;SDS011;65825;52.232;10.566;2023-06-04T09:25:25;4.03;;;2.00;;
76852;SDS011;65825;52.232;10.566;2023-06-04T09:27:52;4.07;;;2.00;;
76852;SDS011;65825;52.232;10.566;2023-06-04T09:30:20;3.05;;;1.95;;
76852;SDS011;65825;52.232;10.566;2023-06-04T09:32:45;3.87;;;2.17;;
76852;SDS011;65825;52.232;10.566;2023-06-04T09:35:18;3.20;;;1.90;;
76852;SDS011;65825;52.232;10.566;2023-06-04T09:37:54;7.07;;;2.00;;
76852;SDS011;65825;52.232;10.566;2023-06-04T09:40:21;4.03;;;2.00;;
76852;SDS011;65825;52.232;10.566;2023-06-04T09:42:47;3.45;;;2.20;;
76852;SDS011;65825;52.232;10.566;2023-06-04T09:45:29;5.32;;;2.00;;
76852;SDS011;65825;52.232;10.566;2023-06-04T09:47:56;4.82;;;2.00;;
76852;SDS011;65825;52.232;10.566;2023-06-04T09:50:25;5.10;;;2.15;;
76852;SDS011;65825;52.232;10.566;2023-06-04T09:52:52;4.22;;;2.20;;
76852;SDS011;65825;52.232;10.566;2023-06-04T09:55:17;5.72;;;2.30;;
76852;SDS011;65825;52.232;10.566;2023-06-04T09:57:46;4.10;;;2.30;;
76852;SDS011;65825;52.232;10.566;2023-06-04T10:00:13;3.63;;;2.40;;
76852;SDS011;65825;52.232;10.566;2023-06-04T10:02:41;4.28;;;2.10;;
76852;SDS011;65825;52.232;10.566;2023-06-04T10:05:08;4.55;;;2.42;;
76852;SDS011;65825;52.232;10.566;2023-06-04T10:07:37;6.00;;;2.40;;
76852;SDS011;65825;52.232;10.566;2023-06-04T10:10:03;4.75;;;2.35;;
76852;SDS011;65825;52.232;10.566;2023-06-04T10:12:30;6.10;;;2.20;;
76852;SDS011;65825;52.232;10.566;2023-06-04T10:15:07;4.00;;;2.10;;
76852;SDS011;65825;52.232;10.566;2023-06-04T10:17:38;4.25;;;2.10;;
76852;SDS011;65825;52.232;10.566;2023-06-04T10:20:09;4.40;;;2.15;;
76852;SDS011;65825;52.232;10.566;2023-06-04T10:22:35;3.10;;;1.90;;
76852;SDS011;65825;52.232;10.566;2023-06-04T10:25:01;5.05;;;1.95;;
76852;SDS011;65825;52.232;10.566;2023-06-04T10:27:29;4.15;;;1.95;;
76852;SDS011;65825;52.232;10.566;2023-06-04T10:30:00;4.70;;;2.20;;
76852;SDS011;65825;52.232;10.566;2023-06-04T10:32:28;4.63;;;2.20;;
76852;SDS011;65825;52.232;10.566;2023-06-04T10:34:54;3.30;;;2.03;;
76852;SDS011;65825;52.232;10.566;2023-06-04T10:37:24;3.45;;;2.10;;
76852;SDS011;65825;52.232;10.566;2023-06-04T10:39:51;2.85;;;1.92;;
76852;SDS011;65825;52.232;10.566;2023-06-04T10:42:17;3.25;;;2.13;;
76852;SDS011;65825;52.232;10.566;2023-06-04T10:44:52;3.83;;;2.08;;
76852;SDS011;65825;52.232;10.566;2023-06-04T10:47:26;4.32;;;2.05;;
76852;SDS011;65825;52.232;10.566;2023-06-04T10:49:55;3.22;;;1.85;;
76852;SDS011;65825;52.232;10.566;2023-06-04T10:52:38;6.20;;;2.00;;
76852;SDS011;65825;52.232;10.566;2023-06-04T10:55:05;4.85;;;1.90;;
76852;SDS011;65825;52.232;10.566;2023-06-04T10:57:31;3.97;;;1.90;;
76852;SDS011;65825;52.232;10.566;2023-06-04T10:59:57;7.53;;;2.20;;
76852;SDS011;65825;52.232;10.566;2023-06-04T11:02:24;5.03;;;1.92;;
76852;SDS011;65825;52.232;10.566;2023-06-04T11:05:02;3.53;;;2.08;;
76852;SDS011;65825;52.232;10.566;2023-06-04T11:07:43;3.00;;;1.83;;
76852;SDS011;65825;52.232;10.566;2023-06-04T11:10:11;4.97;;;2.10;;
76852;SDS011;65825;52.232;10.566;2023-06-04T11:12:44;3.92;;;1.70;;
76852;SDS011;65825;52.232;10.566;2023-06-04T11:15:11;5.30;;;1.90;;
76852;SDS011;65825;52.232;10.566;2023-06-04T11:17:37;5.57;;;2.22;;
76852;SDS011;65825;52.232;10.566;2023-06-04T11:20:02;4.90;;;1.87;;
76852;SDS011;65825;52.232;10.566;2023-06-04T11:22:31;3.88;;;2.00;;
76852;SDS011;65825;52.232;10.566;2023-06-04T11:24:57;4.20;;;1.88;;
76852;SDS011;65825;52.232;10.566;2023-06-04T11:27:25;3.50;;;1.77;;
76852;SDS011;65825;52.232;10.566;2023-06-04T11:29:51;4.57;;;2.00;;
76852;SDS011;65825;52.232;10.566;2023-06-04T11:32:23;6.75;;;2.47;;
76852;SDS011;65825;52.232;10.566;2023-06-04T11:34:49;4.57;;;1.80;;
76852;SDS011;65825;52.232;10.566;2023-06-04T11:37:14;5.45;;;1.90;;
76852;SDS011;65825;52.232;10.566;2023-06-04T11:39:40;4.75;;;1.80;;
76852;SDS011;65825;52.232;10.566;2023-06-04T11:42:08;4.25;;;2.25;;
76852;SDS011;65825;52.232;10.566;2023-06-04T11:44:33;3.10;;;1.80;;
76852;SDS011;65825;52.232;10.566;2023-06-04T11:46:59;4.88;;;2.00;;
76852;SDS011;65825;52.232;10.566;2023-06-04T11:49:24;4.97;;;2.08;;
76852;SDS011;65825;52.232;10.566;2023-06-04T11:51:52;5.60;;;2.13;;
76852;SDS011;65825;52.232;10.566;2023-06-04T11:54:18;4.18;;;2.10;;
76852;SDS011;65825;52.232;10.566;2023-06-04T11:56:48;4.50;;;2.08;;
76852;SDS011;65825;52.232;10.566;2023-06-04T11:59:15;3.53;;;1.90;;
76852;SDS011;65825;52.232;10.566;2023-06-04T12:01:41;3.75;;;1.90;;
76852;SDS011;65825;52.232;10.566;2023-06-04T12:04:14;5.10;;;2.00;;
76852;SDS011;65825;52.232;10.566;2023-06-04T12:09:29;4.30;;;1.70;;
76852;SDS011;65825;52.232;10.566;2023-06-04T12:14:31;3.15;;;1.70;;
76852;SDS011;65825;52.232;10.566;2023-06-04T12:17:01;5.07;;;1.90;;
76852;SDS011;65825;52.232;10.566;2023-06-04T12:19:27;4.47;;;1.95;;
76852;SDS011;65825;52.232;10.566;2023-06-04T12:21:59;4.93;;;1.80;;
76852;SDS011;65825;52.232;10.566;2023-06-04T12:24:29;4.72;;;2.35;;
76852;SDS011;65825;52.232;10.566;2023-06-04T12:27:02;3.78;;;1.90;;
76852;SDS011;65825;52.232;10.566;2023-06-04T12:29:27;4.97;;;1.95;;
76852;SDS011;65825;52.232;10.566;2023-06-04T12:32:00;3.47;;;1.83;;
76852;SDS011;65825;52.232;10.566;2023-06-04T12:34:27;7.50;;;1.80;;
76852;SDS011;65825;52.232;10.566;2023-06-04T12:36:52;3.63;;;1.80;;
76852;SDS011;65825;52.232;10.566;2023-06-04T12:39:17;4.13;;;1.83;;
76852;SDS011;65825;52.232;10.566;2023-06-04T12:41:46;3.00;;;1.98;;
76852;SDS011;65825;52.232;10.566;2023-06-04T12:44:11;4.03;;;2.20;;
76852;SDS011;65825;52.232;10.566;2023-06-04T12:46:37;5.88;;;2.15;;
76852;SDS011;65825;52.232;10.566;2023-06-04T12:49:02;3.08;;;1.80;;
76852;SDS011;65825;52.232;10.566;2023-06-04T12:51:27;3.90;;;1.97;;
76852;SDS011;65825;52.232;10.566;2023-06-04T12:53:52;4.03;;;1.63;;
76852;SDS011;65825;52.232;10.566;2023-06-04T12:56:18;4.63;;;1.90;;
76852;SDS011;65825;52.232;10.566;2023-06-04T12:58:43;3.50;;;1.80;;
76852;SDS011;65825;52.232;10.566;2023-06-04T13:01:08;4.63;;;2.50;;
76852;SDS011;65825;52.232;10.566;2023-06-04T13:03:36;6.68;;;2.33;;
76852;SDS011;65825;52.232;10.566;2023-06-04T13:06:02;5.40;;;1.90;;
76852;SDS011;65825;52.232;10.566;2023-06-04T13:08:27;5.47;;;1.88;;
76852;SDS011;65825;52.232;10.566;2023-06-04T13:10:53;5.10;;;2.00;;
76852;SDS011;65825;52.232;10.566;2023-06-04T13:13:18;9.23;;;3.30;;
76852;SDS011;65825;52.232;10.566;2023-06-04T13:15:45;3.35;;;1.90;;
76852;SDS011;65825;52.232;10.566;2023-06-04T13:18:11;2.90;;;1.85;;
76852;SDS011;65825;52.232;10.566;2023-06-04T13:20:41;4.15;;;1.80;;
76852;SDS011;65825;52.232;10.566;2023-06-04T13:23:07;4.13;;;1.90;;
76852;SDS011;65825;52.232;10.566;2023-06-04T13:25:32;4.05;;;1.92;;
76852;SDS011;65825;52.232;10.566;2023-06-04T13:27:59;3.42;;;2.00;;
76852;SDS011;65825;52.232;10.566;2023-06-04T13:32:55;5.70;;;2.30;;
76852;SDS011;65825;52.232;10.566;2023-06-04T13:35:23;2.80;;;1.80;;
76852;SDS011;65825;52.232;10.566;2023-06-04T13:37:49;3.92;;;2.10;;
76852;SDS011;65825;52.232;10.566;2023-06-04T13:40:14;4.13;;;2.17;;
76852;SDS011;65825;52.232;10.566;2023-06-04T13:42:40;5.22;;;2.30;;
76852;SDS011;65825;52.232;10.566;2023-06-04T13:45:07;5.07;;;2.03;;
76852;SDS011;65825;52.232;10.566;2023-06-04T13:47:33;3.72;;;1.90;;
76852;SDS011;65825;52.232;10.566;2023-06-04T13:49:58;4.07;;;1.95;;
76852;SDS011;65825;52.232;10.566;2023-06-04T13:52:24;3.37;;;2.00;;
76852;SDS011;65825;52.232;10.566;2023-06-04T13:54:49;4.43;;;2.17;;
76852;SDS011;65825;52.232;10.566;2023-06-04T13:57:14;4.78;;;1.98;;
76852;SDS011;65825;52.232;10.566;2023-06-04T13:59:40;5.17;;;2.10;;
76852;SDS011;65825;52.232;10.566;2023-06-04T14:02:05;4.25;;;1.83;;
76852;SDS011;65825;52.232;10.566;2023-06-04T14:04:31;4.43;;;2.05;;
76852;SDS011;65825;52.232;10.566;2023-06-04T14:06:57;4.57;;;1.90;;
76852;SDS011;65825;52.232;10.566;2023-06-04T14:09:22;3.47;;;1.90;;
76852;SDS011;65825;52.232;10.566;2023-06-04T14:11:47;4.80;;;2.30;;
76852;SDS011;65825;52.232;10.566;2023-06-04T14:14:19;3.28;;;1.70;;
76852;SDS011;65825;52.232;10.566;2023-06-04T14:16:46;5.28;;;2.30;;
76852;SDS011;65825;52.232;10.566;2023-06-04T14:19:14;6.75;;;2.22;;
76852;SDS011;65825;52.232;10.566;2023-06-04T14:21:42;7.00;;;1.92;;
76852;SDS011;65825;52.232;10.566;2023-06-04T14:24:08;5.18;;;2.00;;
76852;SDS011;65825;52.232;10.566;2023-06-04T14:26:34;5.97;;;1.90;;
76852;SDS011;65825;52.232;10.566;2023-06-04T14:29:00;4.05;;;1.90;;
76852;SDS011;65825;52.232;10.566;2023-06-04T14:31:26;5.03;;;1.70;;
76852;SDS011;65825;52.232;10.566;2023-06-04T14:33:51;3.83;;;2.15;;
76852;SDS011;65825;52.232;10.566;2023-06-04T14:36:16;3.23;;;2.10;;
76852;SDS011;65825;52.232;10.566;2023-06-04T14:38:42;3.35;;;1.80;;
76852;SDS011;65825;52.232;10.566;2023-06-04T14:41:08;3.97;;;1.83;;
76852;SDS011;65825;52.232;10.566;2023-06-04T14:43:33;3.90;;;2.20;;
76852;SDS011;65825;52.232;10.566;2023-06-04T14:45:59;6.15;;;2.10;;
76852;SDS011;65825;52.232;10.566;2023-06-04T14:48:24;3.40;;;2.10;;
76852;SDS011;65825;52.232;10.566;2023-06-04T14:50:49;3.97;;;1.80;;